Time;durP1;ratioP1;P1;durP2;ratioP2;P2;SDS_P1;SDS_P2;PMS_P1;PMS_P2;Temp;Humidity;BMP_temperature;BMP_pressure;BME280_temperature;BME280_humidity;BME280_pressure;Samples;Min_cycle;Max_cycle;Signal;HPM_P1;HPM_P2
2021/10/05 00:00:40;;;;;;;16.97;9.67;;;10.50;97.50;;;;;;2082326;28;20181;-66
2021/10/05 00:01:46;;;;;;;21.50;10.80;;;10.60;97.50;;;;;;2082120;28;20203;-65
2021/10/05 00:02:46;;;;;;;16.92;9.80;;;10.60;97.40;;;;;;2082383;28;20165;-65
2021/10/05 00:03:47;;;;;;;19.83;9.97;;;10.60;97.50;;;;;;2082480;28;20281;-65
2021/10/05 00:04:48;;;;;;;24.80;10.93;;;10.50;97.60;;;;;;2082251;28;20183;-65
2021/10/05 00:05:48;;;;;;;19.43;10.73;;;10.50;97.70;;;;;;2082482;28;20211;-65
2021/10/05 00:06:49;;;;;;;21.07;10.50;;;10.50;98.00;;;;;;2082260;28;20735;-64
2021/10/05 00:07:50;;;;;;;19.13;10.07;;;10.50;98.10;;;;;;2082301;28;20177;-65
2021/10/05 00:08:51;;;;;;;18.17;9.50;;;10.50;97.90;;;;;;2082303;28;20181;-65
2021/10/05 00:09:51;;;;;;;20.97;10.33;;;10.50;97.90;;;;;;2082272;28;20246;-65
2021/10/05 00:10:52;;;;;;;19.13;10.80;;;10.40;97.80;;;;;;2082382;28;20181;-66
2021/10/05 00:11:53;;;;;;;19.37;9.93;;;10.40;97.90;;;;;;2082089;28;20177;-65
2021/10/05 00:12:54;;;;;;;18.17;9.80;;;10.30;98.00;;;;;;2082331;28;20247;-65
2021/10/05 00:13:54;;;;;;;18.30;9.57;;;10.40;98.10;;;;;;2082160;28;20521;-65
2021/10/05 00:14:56;;;;;;;20.47;10.13;;;10.30;98.30;;;;;;2082232;28;20185;-65
2021/10/05 00:15:57;;;;;;;15.98;8.63;;;10.30;98.40;;;;;;2082290;28;20181;-66
2021/10/05 00:16:57;;;;;;;15.80;8.63;;;10.30;98.50;;;;;;2082232;28;20264;-65
2021/10/05 00:17:58;;;;;;;18.73;9.10;;;10.40;98.40;;;;;;2082234;28;20272;-67
2021/10/05 00:18:59;;;;;;;15.60;8.57;;;10.40;98.20;;;;;;2082275;28;20210;-66
2021/10/05 00:20:00;;;;;;;17.97;9.50;;;10.40;98.00;;;;;;2082085;28;20169;-65
2021/10/05 00:21:01;;;;;;;18.30;9.07;;;10.50;97.90;;;;;;2082096;28;20219;-67
2021/10/05 00:22:03;;;;;;;15.87;8.13;;;10.40;98.00;;;;;;2082107;28;20223;-65
2021/10/05 00:23:04;;;;;;;11.82;7.15;;;10.40;98.00;;;;;;2082060;28;20746;-65
2021/10/05 00:24:04;;;;;;;14.87;8.10;;;10.40;97.90;;;;;;2081990;28;20187;-67
2021/10/05 00:25:06;;;;;;;13.37;8.03;;;10.40;97.90;;;;;;2082184;28;20177;-65
2021/10/05 00:26:07;;;;;;;14.23;7.53;;;10.40;98.00;;;;;;2081975;28;20259;-65
2021/10/05 00:27:08;;;;;;;15.40;8.13;;;10.50;98.00;;;;;;2082268;28;20177;-65
2021/10/05 00:28:08;;;;;;;16.73;8.70;;;10.50;98.00;;;;;;2082045;28;20219;-66
2021/10/05 00:29:09;;;;;;;14.30;7.67;;;10.50;98.30;;;;;;2082069;28;20180;-65
2021/10/05 00:30:10;;;;;;;13.60;7.67;;;10.50;98.40;;;;;;2081978;28;20319;-65
2021/10/05 00:31:11;;;;;;;14.23;7.83;;;10.50;98.40;;;;;;2081804;28;20184;-64
2021/10/05 00:32:11;;;;;;;13.37;7.27;;;10.60;98.30;;;;;;2082086;28;20180;-65
2021/10/05 00:33:12;;;;;;;12.77;7.00;;;10.60;98.10;;;;;;2081835;28;20533;-66
2021/10/05 00:34:13;;;;;;;11.60;6.93;;;10.60;98.00;;;;;;2081075;28;20197;-66
2021/10/05 00:35:14;;;;;;;12.87;7.00;;;10.60;97.70;;;;;;2082086;28;20177;-64
2021/10/05 00:36:14;;;;;;;12.10;7.17;;;10.60;97.50;;;;;;2081981;28;20619;-65
2021/10/05 00:37:15;;;;;;;13.43;7.40;;;10.60;97.60;;;;;;2082048;28;20195;-65
2021/10/05 00:38:16;;;;;;;11.70;7.53;;;10.60;97.70;;;;;;2082122;28;20243;-65
2021/10/05 00:39:16;;;;;;;12.20;6.60;;;10.60;98.00;;;;;;2082122;28;20189;-66
2021/10/05 00:40:17;;;;;;;13.13;7.23;;;10.60;97.80;;;;;;2082038;28;20196;-65
2021/10/05 00:41:18;;;;;;;16.43;7.90;;;10.60;97.90;;;;;;2082070;28;20187;-64
2021/10/05 00:42:19;;;;;;;11.40;6.67;;;10.70;98.00;;;;;;2082067;28;20695;-66
2021/10/05 00:43:19;;;;;;;16.63;8.00;;;10.70;98.00;;;;;;2082274;28;20440;-65
2021/10/05 00:44:30;;;;;;;12.53;7.03;;;10.70;97.90;;;;;;2082510;28;20287;-65
2021/10/05 00:45:31;;;;;;;12.70;7.18;;;10.70;97.90;;;;;;2081944;28;20172;-66
2021/10/05 00:46:34;;;;;;;11.53;7.10;;;10.70;97.60;;;;;;2081683;28;20230;-66
2021/10/05 00:47:34;;;;;;;15.77;7.15;;;10.80;97.40;;;;;;2082092;28;20183;-65
2021/10/05 00:48:35;;;;;;;10.17;6.20;;;10.70;97.50;;;;;;2082410;28;20201;-66
2021/10/05 00:49:37;;;;;;;10.17;6.40;;;10.70;97.50;;;;;;2082607;28;20184;-67
2021/10/05 00:50:37;;;;;;;10.30;6.60;;;10.70;97.70;;;;;;2081908;28;20192;-66
2021/10/05 00:51:38;;;;;;;8.27;5.57;;;10.60;97.70;;;;;;2082056;28;20181;-66
2021/10/05 00:52:39;;;;;;;9.47;6.00;;;10.50;97.80;;;;;;2082360;28;20264;-67
2021/10/05 00:53:40;;;;;;;10.77;6.07;;;10.50;97.90;;;;;;2082500;28;20173;-66
2021/10/05 00:54:42;;;;;;;10.68;6.45;;;10.50;98.00;;;;;;2082177;28;20220;-65
2021/10/05 00:55:44;;;;;;;9.63;5.78;;;10.50;98.20;;;;;;2081901;28;20619;-66
2021/10/05 00:56:44;;;;;;;8.77;5.45;;;10.50;98.20;;;;;;2081713;28;20212;-65
2021/10/05 00:57:46;;;;;;;11.47;7.43;;;10.50;98.20;;;;;;2082120;28;20185;-66
2021/10/05 00:58:47;;;;;;;11.02;7.18;;;10.50;97.90;;;;;;2081814;28;20208;-64
2021/10/05 00:59:47;;;;;;;8.37;6.30;;;10.50;97.80;;;;;;2081884;28;20552;-65
2021/10/05 01:00:48;;;;;;;11.10;6.93;;;10.60;97.40;;;;;;2081950;28;20177;-65
2021/10/05 01:01:49;;;;;;;10.90;6.93;;;10.50;97.50;;;;;;2081688;28;20217;-65
2021/10/05 01:02:50;;;;;;;15.75;8.13;;;10.50;97.90;;;;;;2081233;28;20185;-65
2021/10/05 01:03:51;;;;;;;14.00;7.75;;;10.40;98.40;;;;;;2072970;28;20216;-64
2021/10/05 01:04:52;;;;;;;12.87;7.93;;;10.40;98.60;;;;;;2081092;28;20234;-65
2021/10/05 01:05:52;;;;;;;12.00;7.77;;;10.30;98.60;;;;;;2081739;28;20185;-64
2021/10/05 01:06:59;;;;;;;12.43;8.00;;;10.20;98.70;;;;;;2081743;28;20173;-64
2021/10/05 01:07:59;;;;;;;11.80;7.82;;;10.20;98.60;;;;;;2081869;28;20218;-66
2021/10/05 01:09:00;;;;;;;13.30;8.20;;;10.20;98.60;;;;;;2081126;28;20714;-65
2021/10/05 01:10:02;;;;;;;12.57;7.70;;;10.30;98.50;;;;;;2072954;28;20201;-65
2021/10/05 01:11:03;;;;;;;12.25;8.27;;;10.30;98.30;;;;;;2081250;28;20245;-68
2021/10/05 01:12:05;;;;;;;13.70;8.60;;;10.30;98.20;;;;;;2081770;28;20181;-64
2021/10/05 01:13:06;;;;;;;14.00;8.45;;;10.40;98.20;;;;;;2081882;28;20528;-65
2021/10/05 01:14:07;;;;;;;14.57;8.20;;;10.40;98.20;;;;;;2081730;28;20208;-65
2021/10/05 01:15:08;;;;;;;15.77;8.43;;;10.50;98.20;;;;;;2081976;28;20183;-64
2021/10/05 01:16:08;;;;;;;12.40;7.50;;;10.50;98.00;;;;;;2081735;28;20231;-64
2021/10/05 01:17:10;;;;;;;16.27;8.87;;;10.50;97.80;;;;;;2081951;28;20541;-64
2021/10/05 01:18:11;;;;;;;15.52;9.07;;;10.50;97.70;;;;;;2081669;28;20637;-66
2021/10/05 01:19:11;;;;;;;16.27;8.43;;;10.50;97.70;;;;;;2081949;28;20177;-65
2021/10/05 01:20:14;;;;;;;13.93;8.93;;;10.50;97.80;;;;;;2081552;28;20180;-64
2021/10/05 01:21:14;;;;;;;14.63;8.88;;;10.60;97.70;;;;;;2081536;28;20173;-63
2021/10/05 01:22:15;;;;;;;16.23;8.40;;;10.60;97.60;;;;;;2081835;28;20181;-63
2021/10/05 01:23:16;;;;;;;16.10;8.67;;;10.60;97.60;;;;;;2081954;28;20215;-64
2021/10/05 01:24:21;;;;;;;15.07;8.40;;;10.60;97.40;;;;;;2081063;28;20585;-65
2021/10/05 01:25:22;;;;;;;16.63;9.30;;;10.60;97.20;;;;;;2081149;28;20776;-66
2021/10/05 01:26:22;;;;;;;16.17;8.93;;;10.60;97.00;;;;;;2081905;28;20184;-64
2021/10/05 01:27:23;;;;;;;14.17;8.90;;;10.60;96.90;;;;;;2081640;28;20195;-64
2021/10/05 01:28:25;;;;;;;14.43;8.67;;;10.60;97.00;;;;;;2081657;28;20213;-68
2021/10/05 01:29:30;;;;;;;16.20;9.45;;;10.50;96.90;;;;;;2081705;28;20569;-65
2021/10/05 01:30:30;;;;;;;15.90;9.20;;;10.60;97.00;;;;;;2080868;28;20312;-64
2021/10/05 01:31:37;;;;;;;14.10;8.60;;;10.50;97.10;;;;;;2080869;28;20169;-65
2021/10/05 01:32:38;;;;;;;14.48;8.23;;;10.60;97.20;;;;;;2081695;28;20191;-65
2021/10/05 01:33:39;;;;;;;15.48;9.13;;;10.50;96.90;;;;;;2081683;28;20257;-64
2021/10/05 01:34:40;;;;;;;15.73;8.73;;;10.50;97.00;;;;;;2081340;28;20205;-64
2021/10/05 01:35:41;;;;;;;17.87;9.40;;;10.50;97.10;;;;;;2077918;28;20195;-65
2021/10/05 01:36:42;;;;;;;18.30;9.10;;;10.50;97.30;;;;;;2073391;28;20181;-64
2021/10/05 01:37:42;;;;;;;17.23;9.57;;;10.40;97.40;;;;;;2073547;28;20530;-65
2021/10/05 01:38:43;;;;;;;17.00;8.63;;;10.50;97.50;;;;;;2073506;28;20216;-64
2021/10/05 01:39:44;;;;;;;14.67;8.67;;;10.40;97.50;;;;;;2073639;28;20236;-64
2021/10/05 01:40:44;;;;;;;17.80;9.67;;;10.40;97.70;;;;;;2073546;28;20177;-65
2021/10/05 01:41:46;;;;;;;16.20;8.63;;;10.50;97.60;;;;;;2073010;28;20668;-64
2021/10/05 01:42:47;;;;;;;17.58;9.93;;;10.40;97.50;;;;;;2073410;28;20170;-64
2021/10/05 01:43:48;;;;;;;17.37;9.47;;;10.40;97.60;;;;;;2073413;28;20304;-65
2021/10/05 01:44:51;;;;;;;14.35;8.57;;;10.50;97.60;;;;;;2073111;28;20173;-64
2021/10/05 01:45:52;;;;;;;17.88;9.90;;;10.50;97.60;;;;;;2073119;28;20181;-64
2021/10/05 01:46:53;;;;;;;17.45;9.68;;;10.50;97.70;;;;;;2073188;28;20185;-65
2021/10/05 01:47:54;;;;;;;19.30;9.30;;;10.50;97.70;;;;;;2072890;28;20261;-64
2021/10/05 01:48:54;;;;;;;18.33;9.20;;;10.50;97.70;;;;;;2072794;28;20200;-66
2021/10/05 01:49:55;;;;;;;15.83;9.10;;;10.60;97.70;;;;;;2073471;28;20185;-65
2021/10/05 01:50:56;;;;;;;16.90;8.73;;;10.60;97.50;;;;;;2073348;28;20660;-64
2021/10/05 01:51:57;;;;;;;16.93;8.80;;;10.60;97.40;;;;;;2073008;28;20641;-65
2021/10/05 01:52:57;;;;;;;16.40;8.47;;;10.60;97.20;;;;;;2073460;28;20181;-65
2021/10/05 01:53:59;;;;;;;15.73;8.50;;;10.60;97.20;;;;;;2077526;28;20176;-64
2021/10/05 01:54:59;;;;;;;15.35;7.90;;;10.60;97.00;;;;;;2080853;28;20177;-64
2021/10/05 01:56:00;;;;;;;18.50;9.30;;;10.60;97.00;;;;;;2080684;28;20628;-63
2021/10/05 01:57:01;;;;;;;20.67;8.90;;;10.50;97.20;;;;;;2081535;28;20180;-65
2021/10/05 01:58:02;;;;;;;15.10;8.03;;;10.50;97.50;;;;;;2080759;28;20647;-65
2021/10/05 01:59:03;;;;;;;13.13;8.35;;;10.40;97.60;;;;;;2080844;28;20570;-65
2021/10/05 02:00:06;;;;;;;14.65;7.57;;;10.40;97.70;;;;;;2081606;28;20181;-65
2021/10/05 02:01:07;;;;;;;14.55;7.25;;;10.50;97.80;;;;;;2081098;28;20177;-66
2021/10/05 02:02:08;;;;;;;13.40;7.40;;;10.50;97.80;;;;;;2081653;28;20195;-65
2021/10/05 02:03:08;;;;;;;17.30;8.57;;;10.50;97.80;;;;;;2081515;28;20300;-64
2021/10/05 02:04:11;;;;;;;15.57;7.63;;;10.50;97.90;;;;;;2081230;28;20290;-64
2021/10/05 02:05:11;;;;;;;13.10;8.00;;;10.50;97.90;;;;;;2081414;28;20203;-66
2021/10/05 02:06:12;;;;;;;14.47;7.83;;;10.50;97.60;;;;;;2081527;28;20169;-65
2021/10/05 02:07:14;;;;;;;13.60;7.80;;;10.50;97.30;;;;;;2081505;28;20173;-67
2021/10/05 02:08:14;;;;;;;13.73;7.70;;;10.50;97.30;;;;;;2081353;28;20176;-65
2021/10/05 02:09:15;;;;;;;12.63;7.40;;;10.40;97.50;;;;;;2081592;28;20196;-65
2021/10/05 02:10:16;;;;;;;15.37;7.80;;;10.40;97.60;;;;;;2081466;28;20271;-65
2021/10/05 02:11:17;;;;;;;14.60;7.30;;;10.40;97.60;;;;;;2081609;28;20184;-66
2021/10/05 02:12:19;;;;;;;16.43;7.83;;;10.40;97.80;;;;;;2081518;28;20176;-65
2021/10/05 02:13:19;;;;;;;14.07;7.63;;;10.40;97.80;;;;;;2081323;28;20640;-66
2021/10/05 02:14:20;;;;;;;15.07;7.83;;;10.40;97.90;;;;;;2081365;28;20216;-65
2021/10/05 02:15:21;;;;;;;11.90;7.17;;;10.50;97.70;;;;;;2081517;28;20237;-64
2021/10/05 02:16:21;;;;;;;11.10;6.87;;;10.50;97.50;;;;;;2081505;28;20275;-66
2021/10/05 02:17:22;;;;;;;12.03;6.90;;;10.50;97.50;;;;;;2081434;28;20570;-65
2021/10/05 02:18:23;;;;;;;17.27;7.70;;;10.40;97.60;;;;;;2081643;28;20208;-65
2021/10/05 02:19:24;;;;;;;12.33;7.07;;;10.40;97.70;;;;;;2081364;28;20177;-66
2021/10/05 02:20:25;;;;;;;12.87;7.27;;;10.40;97.80;;;;;;2081587;28;20239;-65
2021/10/05 02:21:26;;;;;;;14.10;7.78;;;10.40;97.60;;;;;;2080686;28;20172;-66
2021/10/05 02:22:26;;;;;;;11.90;7.07;;;10.40;97.30;;;;;;2080847;28;20188;-65
2021/10/05 02:23:37;;;;;;;11.93;7.30;;;10.40;97.30;;;;;;2081544;28;20212;-66
2021/10/05 02:24:42;;;;;;;10.82;6.80;;;10.40;97.50;;;;;;2081333;28;20694;-66
2021/10/05 02:25:42;;;;;;;11.35;6.40;;;10.40;97.60;;;;;;2081671;28;20162;-65
2021/10/05 02:26:43;;;;;;;11.33;6.70;;;10.40;97.60;;;;;;2081458;28;20181;-66
2021/10/05 02:27:44;;;;;;;16.40;8.17;;;10.40;97.50;;;;;;2081479;28;20181;-65
2021/10/05 02:28:45;;;;;;;16.27;7.33;;;10.40;97.40;;;;;;2081137;28;20435;-65
2021/10/05 02:29:46;;;;;;;14.07;7.13;;;10.40;97.50;;;;;;2081379;28;20177;-65
2021/10/05 02:30:47;;;;;;;14.07;7.18;;;10.30;97.50;;;;;;2080585;28;20181;-64
2021/10/05 02:31:49;;;;;;;13.63;7.03;;;10.30;97.60;;;;;;2080724;28;20204;-66
2021/10/05 02:32:49;;;;;;;11.02;6.30;;;10.20;97.60;;;;;;2080742;28;20189;-67
2021/10/05 02:33:50;;;;;;;14.80;7.80;;;10.30;97.70;;;;;;2080655;28;20181;-65
2021/10/05 02:34:51;;;;;;;11.93;7.07;;;10.30;97.60;;;;;;2078159;28;20237;-65
2021/10/05 02:35:52;;;;;;;12.57;7.03;;;10.30;97.60;;;;;;2080596;28;20648;-66
2021/10/05 02:36:52;;;;;;;11.37;6.20;;;10.30;97.70;;;;;;2080543;28;20192;-65
2021/10/05 02:37:53;;;;;;;12.63;6.90;;;10.30;97.80;;;;;;2080753;28;20207;-65
2021/10/05 02:38:54;;;;;;;12.37;6.50;;;10.30;97.70;;;;;;2081244;28;20181;-66
2021/10/05 02:39:58;;;;;;;10.27;5.67;;;10.30;97.60;;;;;;2081490;28;20208;-65
2021/10/05 02:40:59;;;;;;;12.20;6.75;;;10.20;97.40;;;;;;2080583;28;20235;-65
2021/10/05 02:42:00;;;;;;;10.77;5.77;;;10.20;97.50;;;;;;2080933;28;20532;-65
2021/10/05 02:43:00;;;;;;;9.83;5.77;;;10.30;97.60;;;;;;2081147;28;20592;-65
2021/10/05 02:44:02;;;;;;;12.70;6.60;;;10.30;97.50;;;;;;2081137;28;20185;-64
2021/10/05 02:45:05;;;;;;;12.55;6.82;;;10.30;97.70;;;;;;2081154;28;20184;-65
2021/10/05 02:46:06;;;;;;;13.57;6.47;;;10.20;97.80;;;;;;2081271;28;20181;-65
2021/10/05 02:47:08;;;;;;;9.23;6.17;;;10.20;98.00;;;;;;2081139;28;20177;-65
2021/10/05 02:48:09;;;;;;;11.30;7.15;;;10.20;98.00;;;;;;2081160;28;20185;-64
2021/10/05 02:49:09;;;;;;;9.80;5.77;;;10.20;98.10;;;;;;2081341;28;20173;-64
2021/10/05 02:50:10;;;;;;;12.07;6.10;;;10.20;98.30;;;;;;2081295;28;20540;-64
2021/10/05 02:51:11;;;;;;;18.70;7.83;;;10.20;98.40;;;;;;2080819;28;20195;-65
2021/10/05 02:52:18;;;;;;;16.60;7.13;;;10.10;98.70;;;;;;2081298;28;20264;-64
2021/10/05 02:53:19;;;;;;;13.40;6.57;;;10.10;98.80;;;;;;2080551;28;20673;-65
2021/10/05 02:54:19;;;;;;;9.93;5.20;;;10.10;98.90;;;;;;2080646;28;20200;-65
2021/10/05 02:55:20;;;;;;;10.00;5.80;;;10.20;99.00;;;;;;2081333;28;20667;-66
2021/10/05 02:56:21;;;;;;;13.20;6.72;;;10.20;99.00;;;;;;2081152;28;20648;-64
2021/10/05 02:57:22;;;;;;;11.80;6.57;;;10.20;98.80;;;;;;2081707;28;20268;-66
2021/10/05 02:58:23;;;;;;;10.67;6.10;;;10.20;98.70;;;;;;2082061;28;20668;-64
2021/10/05 02:59:23;;;;;;;11.00;6.03;;;10.30;98.60;;;;;;2082110;28;20184;-64
2021/10/05 03:00:24;;;;;;;9.23;6.07;;;10.30;98.40;;;;;;2082719;28;20509;-66
2021/10/05 03:01:25;;;;;;;9.67;5.87;;;10.30;98.20;;;;;;2082358;28;20277;-64
2021/10/05 03:02:26;;;;;;;8.30;5.20;;;10.30;98.00;;;;;;2082822;28;20177;-63
2021/10/05 03:03:26;;;;;;;9.17;5.60;;;10.30;97.90;;;;;;2082687;28;20687;-65
2021/10/05 03:04:27;;;;;;;8.27;5.13;;;10.30;97.90;;;;;;2082646;28;20291;-64
2021/10/05 03:05:28;;;;;;;9.50;6.03;;;10.40;97.90;;;;;;2082715;28;20184;-63
2021/10/05 03:06:28;;;;;;;10.33;6.10;;;10.40;97.90;;;;;;2082674;28;20192;-64
2021/10/05 03:07:29;;;;;;;8.43;5.50;;;10.40;97.90;;;;;;2082538;28;20188;-64
2021/10/05 03:08:30;;;;;;;10.47;5.70;;;10.40;97.80;;;;;;2082709;28;20208;-63
2021/10/05 03:09:31;;;;;;;8.00;4.53;;;10.40;97.90;;;;;;2082914;28;20176;-64
2021/10/05 03:10:34;;;;;;;10.43;5.55;;;10.40;98.00;;;;;;2081976;28;20538;-63
2021/10/05 03:11:35;;;;;;;10.82;5.63;;;10.40;98.00;;;;;;2073972;28;20718;-64
2021/10/05 03:12:35;;;;;;;10.37;5.83;;;10.40;98.00;;;;;;2082000;28;20180;-64
2021/10/05 03:13:38;;;;;;;8.27;5.23;;;10.40;98.00;;;;;;2082710;28;20214;-66
2021/10/05 03:14:38;;;;;;;8.90;5.32;;;10.40;97.90;;;;;;2082729;28;20262;-64
2021/10/05 03:15:39;;;;;;;9.73;5.03;;;10.40;97.80;;;;;;2081984;28;20266;-64
2021/10/05 03:16:40;;;;;;;10.30;5.90;;;10.50;97.70;;;;;;2081938;28;20201;-64
2021/10/05 03:17:42;;;;;;;10.00;5.90;;;10.50;97.50;;;;;;2082726;28;20598;-65
2021/10/05 03:18:43;;;;;;;9.55;5.60;;;10.50;97.70;;;;;;2081772;28;20417;-64
2021/10/05 03:19:44;;;;;;;10.05;5.43;;;10.50;97.70;;;;;;2081994;28;20189;-64
2021/10/05 03:20:44;;;;;;;11.27;6.03;;;10.40;97.70;;;;;;2082492;28;20209;-64
2021/10/05 03:21:45;;;;;;;8.97;5.60;;;10.40;97.70;;;;;;2082458;28;20619;-65
2021/10/05 03:22:46;;;;;;;9.37;5.27;;;10.40;97.60;;;;;;2082770;28;20208;-64
2021/10/05 03:23:47;;;;;;;7.47;4.77;;;10.40;97.70;;;;;;2082485;28;20633;-65
2021/10/05 03:24:47;;;;;;;9.53;5.37;;;10.30;97.60;;;;;;2082536;28;20205;-64
2021/10/05 03:25:48;;;;;;;11.33;5.60;;;10.30;97.80;;;;;;2082542;28;20271;-64
2021/10/05 03:26:49;;;;;;;9.17;5.40;;;10.40;97.80;;;;;;2082513;28;20268;-65
2021/10/05 03:27:49;;;;;;;7.60;4.83;;;10.30;97.80;;;;;;2081392;28;20242;-63
2021/10/05 03:28:50;;;;;;;11.27;5.70;;;10.40;97.70;;;;;;2081785;28;20251;-63
2021/10/05 03:29:51;;;;;;;8.83;5.33;;;10.30;97.60;;;;;;2074355;28;20186;-65
2021/10/05 03:30:52;;;;;;;10.63;5.67;;;10.30;97.70;;;;;;2074207;28;20574;-64
2021/10/05 03:31:52;;;;;;;9.97;5.00;;;10.30;97.60;;;;;;2073990;28;20460;-64
2021/10/05 03:32:53;;;;;;;10.30;5.43;;;10.40;97.70;;;;;;2074080;28;20629;-65
2021/10/05 03:33:54;;;;;;;8.13;5.27;;;10.40;97.60;;;;;;2073940;28;20208;-64
2021/10/05 03:34:54;;;;;;;8.97;5.03;;;10.40;97.30;;;;;;2074089;28;20691;-64
2021/10/05 03:35:55;;;;;;;9.27;5.17;;;10.40;97.20;;;;;;2074131;28;20272;-66
2021/10/05 03:36:56;;;;;;;7.53;4.53;;;10.40;97.20;;;;;;2074107;28;20189;-63
2021/10/05 03:37:56;;;;;;;8.07;4.60;;;10.40;97.40;;;;;;2074131;28;20224;-64
2021/10/05 03:38:57;;;;;;;8.00;4.83;;;10.30;97.60;;;;;;2074023;28;20182;-64
2021/10/05 03:39:58;;;;;;;10.13;5.40;;;10.30;97.70;;;;;;2074019;28;20619;-64
2021/10/05 03:40:59;;;;;;;12.40;5.60;;;10.30;97.80;;;;;;2073941;28;20192;-64
2021/10/05 03:41:59;;;;;;;13.17;5.77;;;10.30;97.80;;;;;;2073956;28;20182;-64
2021/10/05 03:43:00;;;;;;;10.97;4.97;;;10.30;97.90;;;;;;2073898;28;20173;-64
2021/10/05 03:44:01;;;;;;;7.30;4.33;;;10.30;98.00;;;;;;2073950;28;20272;-64
2021/10/05 03:45:02;;;;;;;7.93;4.47;;;10.30;98.10;;;;;;2075782;28;20279;-65
2021/10/05 03:46:04;;;;;;;7.55;4.50;;;10.30;98.00;;;;;;2082221;28;20239;-65
2021/10/05 03:47:05;;;;;;;10.05;5.00;;;10.30;97.80;;;;;;2081621;28;20294;-65
2021/10/05 03:48:05;;;;;;;11.13;4.80;;;10.30;97.70;;;;;;2081612;28;20633;-65
2021/10/05 03:49:06;;;;;;;7.13;4.20;;;10.40;97.60;;;;;;2082165;28;20182;-64
2021/10/05 03:50:09;;;;;;;7.47;4.87;;;10.40;97.30;;;;;;2082174;28;20180;-63
2021/10/05 03:51:10;;;;;;;7.97;4.50;;;10.30;97.10;;;;;;2081868;28;20230;-64
2021/10/05 03:52:11;;;;;;;7.13;4.10;;;10.30;97.10;;;;;;2082249;28;20580;-63
2021/10/05 03:53:17;;;;;;;7.83;4.23;;;10.30;97.30;;;;;;2082049;28;20180;-65
2021/10/05 03:54:17;;;;;;;6.85;4.00;;;10.30;97.50;;;;;;2082086;28;20572;-65
2021/10/05 03:55:18;;;;;;;8.23;4.80;;;10.20;97.80;;;;;;2082028;28;20181;-64
2021/10/05 03:56:19;;;;;;;8.20;4.25;;;10.20;98.00;;;;;;2082192;28;20283;-64
2021/10/05 03:57:20;;;;;;;9.83;4.43;;;10.20;98.00;;;;;;2082208;28;20276;-64
2021/10/05 03:58:23;;;;;;;8.00;4.80;;;10.20;98.00;;;;;;2082145;28;20181;-64
2021/10/05 03:59:23;;;;;;;8.07;4.82;;;10.20;97.90;;;;;;2082112;28;20263;-65
2021/10/05 04:00:24;;;;;;;10.83;5.27;;;10.20;97.90;;;;;;2081363;28;20180;-63
2021/10/05 04:01:25;;;;;;;9.47;4.93;;;10.20;97.90;;;;;;2081149;28;20177;-64
2021/10/05 04:02:25;;;;;;;12.10;5.77;;;10.20;97.90;;;;;;2082080;28;20181;-65
2021/10/05 04:03:26;;;;;;;11.00;5.37;;;10.20;97.90;;;;;;2082074;28;20217;-63
2021/10/05 04:04:27;;;;;;;9.57;5.40;;;10.20;97.90;;;;;;2081914;28;20560;-63
2021/10/05 04:05:28;;;;;;;10.57;5.30;;;10.20;97.80;;;;;;2082108;28;20235;-64
2021/10/05 04:06:28;;;;;;;11.10;5.50;;;10.30;97.60;;;;;;2081864;28;20188;-64
2021/10/05 04:07:29;;;;;;;9.80;5.47;;;10.30;97.60;;;;;;2082061;28;20169;-64
2021/10/05 04:08:30;;;;;;;9.57;5.10;;;10.30;97.50;;;;;;2081118;28;20180;-65
2021/10/05 04:09:31;;;;;;;8.70;4.53;;;10.30;97.50;;;;;;2081547;28;20597;-63
2021/10/05 04:10:32;;;;;;;10.73;4.60;;;10.30;97.60;;;;;;2081994;28;20631;-63
2021/10/05 04:11:33;;;;;;;13.63;5.17;;;10.20;97.70;;;;;;2081813;28;20177;-64
2021/10/05 04:12:35;;;;;;;9.18;4.95;;;10.20;97.90;;;;;;2082051;28;20428;-65
2021/10/05 04:13:35;;;;;;;7.07;4.22;;;10.20;98.10;;;;;;2082083;28;20185;-64
2021/10/05 04:14:37;;;;;;;6.67;4.37;;;10.20;98.10;;;;;;2081961;28;20204;-66
2021/10/05 04:15:37;;;;;;;7.18;4.60;;;10.20;98.30;;;;;;2082063;28;20605;-64
2021/10/05 04:16:38;;;;;;;7.83;4.23;;;10.30;98.20;;;;;;2081938;28;20197;-65
2021/10/05 04:17:39;;;;;;;11.13;4.77;;;10.20;98.20;;;;;;2082044;28;20239;-64
2021/10/05 04:18:39;;;;;;;6.30;4.20;;;10.20;98.20;;;;;;2082063;28;20493;-64
2021/10/05 04:19:40;;;;;;;6.30;4.40;;;10.20;98.20;;;;;;2082057;28;20193;-65
2021/10/05 04:20:41;;;;;;;7.87;4.27;;;10.30;98.30;;;;;;2081959;28;20189;-65
2021/10/05 04:21:41;;;;;;;7.13;4.27;;;10.30;98.20;;;;;;2081892;28;20246;-65
2021/10/05 04:22:42;;;;;;;6.10;4.00;;;10.30;98.10;;;;;;2081853;28;20184;-65
2021/10/05 04:23:43;;;;;;;7.20;3.80;;;10.40;97.90;;;;;;2081278;28;20229;-64
2021/10/05 04:24:44;;;;;;;10.60;4.20;;;10.30;97.90;;;;;;2081346;28;20441;-65
2021/10/05 04:25:44;;;;;;;8.67;4.20;;;10.30;97.90;;;;;;2081965;28;20276;-65
2021/10/05 04:26:45;;;;;;;6.93;3.80;;;10.20;98.40;;;;;;2081929;28;20233;-64
2021/10/05 04:27:46;;;;;;;8.90;4.00;;;10.10;98.70;;;;;;2081945;28;20233;-64
2021/10/05 04:28:47;;;;;;;8.40;3.83;;;10.00;99.00;;;;;;2081910;28;20259;-65
2021/10/05 04:29:47;;;;;;;6.90;3.07;;;10.00;99.20;;;;;;2082005;28;20547;-64
2021/10/05 04:30:48;;;;;;;7.53;4.00;;;10.00;99.20;;;;;;2081783;28;20185;-65
2021/10/05 04:31:49;;;;;;;6.87;3.70;;;10.00;99.30;;;;;;2081674;28;20223;-65
2021/10/05 04:32:49;;;;;;;6.07;3.53;;;10.00;99.30;;;;;;2081784;28;20181;-63
2021/10/05 04:33:50;;;;;;;4.90;3.23;;;10.10;99.30;;;;;;2081830;28;20192;-65
2021/10/05 04:34:51;;;;;;;5.57;3.83;;;10.10;99.10;;;;;;2081854;28;20215;-64
2021/10/05 04:35:52;;;;;;;6.73;4.00;;;10.20;98.90;;;;;;2081817;28;20730;-64
2021/10/05 04:36:52;;;;;;;6.63;4.70;;;10.20;98.80;;;;;;2081891;28;20188;-66
2021/10/05 04:37:53;;;;;;;9.63;5.70;;;10.20;98.50;;;;;;2081863;28;20179;-64
2021/10/05 04:38:54;;;;;;;8.40;5.50;;;10.30;98.30;;;;;;2081801;28;20254;-63
2021/10/05 04:39:54;;;;;;;8.67;5.10;;;10.30;97.90;;;;;;2081898;28;20247;-66
2021/10/05 04:40:55;;;;;;;9.17;5.10;;;10.30;97.60;;;;;;2081873;28;20231;-64
2021/10/05 04:41:56;;;;;;;8.83;5.20;;;10.30;97.40;;;;;;2081546;28;20552;-64
2021/10/05 04:42:57;;;;;;;8.40;4.83;;;10.30;97.30;;;;;;2081720;28;20216;-65
2021/10/05 04:43:57;;;;;;;9.20;5.50;;;10.30;97.30;;;;;;2081626;28;20195;-65
2021/10/05 04:44:58;;;;;;;7.27;4.97;;;10.30;97.30;;;;;;2081794;28;20528;-63
2021/10/05 04:45:59;;;;;;;10.60;5.47;;;10.30;97.40;;;;;;2081941;28;20210;-65
2021/10/05 04:47:00;;;;;;;12.00;6.00;;;10.30;97.40;;;;;;2081799;28;20242;-64
2021/10/05 04:48:07;;;;;;;9.23;5.90;;;10.30;97.60;;;;;;2081789;28;20463;-63
2021/10/05 04:49:08;;;;;;;11.13;6.28;;;10.20;97.90;;;;;;2081657;28;20243;-64
2021/10/05 04:50:11;;;;;;;10.67;5.73;;;10.20;98.10;;;;;;2081699;28;20165;-64
2021/10/05 04:51:12;;;;;;;11.45;6.60;;;10.20;98.10;;;;;;2080900;28;20181;-65
2021/10/05 04:52:12;;;;;;;12.40;6.33;;;10.20;98.20;;;;;;2081110;28;20197;-63
2021/10/05 04:53:15;;;;;;;7.83;4.93;;;10.20;98.30;;;;;;2081729;28;20214;-64
2021/10/05 04:54:15;;;;;;;7.85;4.85;;;10.20;98.40;;;;;;2080890;28;20193;-64
2021/10/05 04:55:16;;;;;;;9.17;4.93;;;10.20;98.30;;;;;;2081204;28;20272;-64
2021/10/05 04:56:17;;;;;;;8.17;4.80;;;10.10;98.30;;;;;;2081638;28;20176;-65
2021/10/05 04:57:17;;;;;;;7.63;4.90;;;10.10;98.40;;;;;;2081714;28;20251;-64
2021/10/05 04:58:18;;;;;;;8.57;4.90;;;10.20;98.40;;;;;;2081681;28;20191;-63
2021/10/05 04:59:19;;;;;;;7.73;5.00;;;10.20;98.30;;;;;;2081748;28;20298;-65
2021/10/05 05:00:20;;;;;;;8.27;4.78;;;10.20;98.20;;;;;;2081508;28;20640;-64
2021/10/05 05:01:20;;;;;;;8.60;4.63;;;10.20;97.90;;;;;;2081566;28;20285;-64
2021/10/05 05:02:21;;;;;;;7.70;4.43;;;10.20;97.90;;;;;;2081596;28;20189;-65
2021/10/05 05:03:24;;;;;;;8.67;4.80;;;10.20;97.90;;;;;;2081495;28;20350;-64
2021/10/05 05:04:25;;;;;;;11.13;5.35;;;10.10;98.10;;;;;;2081557;28;20224;-64
2021/10/05 05:05:25;;;;;;;9.27;5.37;;;10.10;98.30;;;;;;2081524;28;20238;-64
2021/10/05 05:06:26;;;;;;;9.43;5.70;;;10.10;98.60;;;;;;2081602;28;20181;-64
2021/10/05 05:07:29;;;;;;;11.47;6.53;;;10.10;98.60;;;;;;2081660;28;20181;-65
2021/10/05 05:08:29;;;;;;;22.55;10.98;;;10.10;98.70;;;;;;2081552;28;20178;-65
2021/10/05 05:09:30;;;;;;;21.83;10.27;;;10.20;98.60;;;;;;2081667;28;20607;-64
2021/10/05 05:10:31;;;;;;;12.70;5.90;;;10.20;98.40;;;;;;2081575;28;20375;-64
2021/10/05 05:11:32;;;;;;;10.57;5.73;;;10.20;98.90;;;;;;2081425;28;20575;-64
2021/10/05 05:12:33;;;;;;;13.60;6.45;;;10.20;98.20;;;;;;2081519;28;20174;-63
2021/10/05 05:13:33;;;;;;;12.90;6.20;;;10.20;98.10;;;;;;2081632;28;20212;-64
2021/10/05 05:14:35;;;;;;;19.00;7.73;;;10.30;98.00;;;;;;2081400;28;20594;-64
2021/10/05 05:15:35;;;;;;;21.15;7.82;;;10.30;97.90;;;;;;2081526;28;20268;-65